sensor_id;sensor_type;location;lat;lon;timestamp;P1;durP1;ratioP1;P2;durP2;ratioP2
26838;SDS011;40088;51.214;6.786;2023-08-21T00:08:54;8.52;;;5.03;;
26838;SDS011;40088;51.214;6.786;2023-08-21T00:18:55;9.15;;;4.40;;
26838;SDS011;40088;51.214;6.786;2023-08-21T00:28:56;7.80;;;4.18;;
26838;SDS011;40088;51.214;6.786;2023-08-21T00:38:56;8.55;;;5.15;;
26838;SDS011;40088;51.214;6.786;2023-08-21T00:48:56;9.43;;;4.68;;
26838;SDS011;40088;51.214;6.786;2023-08-21T00:58:57;6.18;;;4.40;;
26838;SDS011;40088;51.214;6.786;2023-08-21T01:09:17;5.57;;;4.10;;
26838;SDS011;40088;51.214;6.786;2023-08-21T01:19:34;6.28;;;3.83;;
26838;SDS011;40088;51.214;6.786;2023-08-21T01:29:37;7.45;;;3.80;;
26838;SDS011;40088;51.214;6.786;2023-08-21T01:39:37;4.47;;;3.45;;
26838;SDS011;40088;51.214;6.786;2023-08-21T01:49:38;5.47;;;3.60;;
26838;SDS011;40088;51.214;6.786;2023-08-21T01:59:38;6.47;;;3.90;;
26838;SDS011;40088;51.214;6.786;2023-08-21T02:09:38;9.23;;;4.20;;
26838;SDS011;40088;51.214;6.786;2023-08-21T02:19:39;6.85;;;3.78;;
26838;SDS011;40088;51.214;6.786;2023-08-21T02:29:39;4.63;;;3.10;;
26838;SDS011;40088;51.214;6.786;2023-08-21T02:39:39;5.65;;;3.20;;
26838;SDS011;40088;51.214;6.786;2023-08-21T02:49:40;8.65;;;3.92;;
26838;SDS011;40088;51.214;6.786;2023-08-21T02:59:40;6.32;;;3.05;;
26838;SDS011;40088;51.214;6.786;2023-08-21T03:09:40;6.72;;;3.65;;
26838;SDS011;40088;51.214;6.786;2023-08-21T03:19:41;6.27;;;3.97;;
26838;SDS011;40088;51.214;6.786;2023-08-21T03:29:41;5.03;;;3.38;;
26838;SDS011;40088;51.214;6.786;2023-08-21T03:39:48;6.22;;;3.65;;
26838;SDS011;40088;51.214;6.786;2023-08-21T03:49:48;7.60;;;4.03;;
26838;SDS011;40088;51.214;6.786;2023-08-21T03:59:48;6.22;;;3.92;;
26838;SDS011;40088;51.214;6.786;2023-08-21T04:09:48;6.50;;;4.00;;
26838;SDS011;40088;51.214;6.786;2023-08-21T04:19:52;5.95;;;3.72;;
26838;SDS011;40088;51.214;6.786;2023-08-21T04:39:53;8.00;;;3.78;;
26838;SDS011;40088;51.214;6.786;2023-08-21T04:49:54;9.30;;;4.10;;
26838;SDS011;40088;51.214;6.786;2023-08-21T04:59:55;5.47;;;3.17;;
26838;SDS011;40088;51.214;6.786;2023-08-21T05:09:58;6.20;;;3.78;;
26838;SDS011;40088;51.214;6.786;2023-08-21T05:19:59;4.85;;;3.13;;
26838;SDS011;40088;51.214;6.786;2023-08-21T05:29:59;6.28;;;3.40;;
26838;SDS011;40088;51.214;6.786;2023-08-21T05:40:00;7.03;;;3.65;;
26838;SDS011;40088;51.214;6.786;2023-08-21T05:50:00;6.28;;;3.53;;
26838;SDS011;40088;51.214;6.786;2023-08-21T06:00:00;6.45;;;3.80;;
26838;SDS011;40088;51.214;6.786;2023-08-21T06:10:01;7.68;;;4.60;;
26838;SDS011;40088;51.214;6.786;2023-08-21T06:20:01;11.43;;;6.50;;
26838;SDS011;40088;51.214;6.786;2023-08-21T06:30:03;7.20;;;3.88;;
26838;SDS011;40088;51.214;6.786;2023-08-21T06:40:03;9.13;;;4.33;;
26838;SDS011;40088;51.214;6.786;2023-08-21T06:50:04;6.73;;;4.53;;
26838;SDS011;40088;51.214;6.786;2023-08-21T07:00:05;10.30;;;5.27;;
26838;SDS011;40088;51.214;6.786;2023-08-21T07:10:06;5.55;;;4.18;;
26838;SDS011;40088;51.214;6.786;2023-08-21T07:20:08;9.60;;;5.22;;
26838;SDS011;40088;51.214;6.786;2023-08-21T07:30:08;6.65;;;4.20;;
26838;SDS011;40088;51.214;6.786;2023-08-21T07:40:09;8.00;;;4.77;;
26838;SDS011;40088;51.214;6.786;2023-08-21T07:50:10;7.33;;;4.00;;
26838;SDS011;40088;51.214;6.786;2023-08-21T08:00:10;10.38;;;5.40;;
26838;SDS011;40088;51.214;6.786;2023-08-21T08:10:11;7.90;;;4.80;;
26838;SDS011;40088;51.214;6.786;2023-08-21T08:20:12;12.98;;;8.52;;
26838;SDS011;40088;51.214;6.786;2023-08-21T08:30:13;13.95;;;9.15;;
26838;SDS011;40088;51.214;6.786;2023-08-21T08:40:13;14.77;;;12.00;;
26838;SDS011;40088;51.214;6.786;2023-08-21T08:50:14;19.00;;;13.05;;
26838;SDS011;40088;51.214;6.786;2023-08-21T09:00:15;29.35;;;21.55;;
26838;SDS011;40088;51.214;6.786;2023-08-21T09:10:16;18.95;;;14.07;;
26838;SDS011;40088;51.214;6.786;2023-08-21T09:20:16;21.25;;;16.40;;
26838;SDS011;40088;51.214;6.786;2023-08-21T09:30:16;19.55;;;14.85;;
26838;SDS011;40088;51.214;6.786;2023-08-21T09:40:17;18.80;;;14.05;;
26838;SDS011;40088;51.214;6.786;2023-08-21T09:50:17;10.30;;;8.18;;
26838;SDS011;40088;51.214;6.786;2023-08-21T10:00:18;10.50;;;8.97;;
26838;SDS011;40088;51.214;6.786;2023-08-21T10:10:21;8.17;;;5.63;;
26838;SDS011;40088;51.214;6.786;2023-08-21T10:20:21;12.48;;;9.25;;
26838;SDS011;40088;51.214;6.786;2023-08-21T10:30:24;9.00;;;8.05;;
26838;SDS011;40088;51.214;6.786;2023-08-21T10:40:28;17.17;;;13.20;;
26838;SDS011;40088;51.214;6.786;2023-08-21T10:50:28;10.73;;;8.63;;
26838;SDS011;40088;51.214;6.786;2023-08-21T11:00:28;8.10;;;7.15;;
26838;SDS011;40088;51.214;6.786;2023-08-21T11:10:30;10.50;;;8.82;;
26838;SDS011;40088;51.214;6.786;2023-08-21T11:20:32;12.97;;;9.40;;
26838;SDS011;40088;51.214;6.786;2023-08-21T11:30:34;7.53;;;5.80;;
26838;SDS011;40088;51.214;6.786;2023-08-21T11:40:34;10.70;;;6.50;;
26838;SDS011;40088;51.214;6.786;2023-08-21T11:50:35;13.18;;;9.02;;
26838;SDS011;40088;51.214;6.786;2023-08-21T12:00:35;13.13;;;11.27;;
26838;SDS011;40088;51.214;6.786;2023-08-21T12:10:39;11.00;;;8.07;;
26838;SDS011;40088;51.214;6.786;2023-08-21T12:20:40;13.60;;;10.68;;
26838;SDS011;40088;51.214;6.786;2023-08-21T12:30:40;14.70;;;13.20;;
26838;SDS011;40088;51.214;6.786;2023-08-21T12:40:40;11.85;;;9.75;;
26838;SDS011;40088;51.214;6.786;2023-08-21T12:50:41;14.20;;;10.90;;
26838;SDS011;40088;51.214;6.786;2023-08-21T13:00:41;23.48;;;20.77;;
26838;SDS011;40088;51.214;6.786;2023-08-21T13:10:41;16.05;;;13.15;;
26838;SDS011;40088;51.214;6.786;2023-08-21T13:20:42;11.18;;;7.50;;
26838;SDS011;40088;51.214;6.786;2023-08-21T13:30:42;11.38;;;10.07;;
26838;SDS011;40088;51.214;6.786;2023-08-21T13:40:42;19.00;;;14.85;;
26838;SDS011;40088;51.214;6.786;2023-08-21T13:50:43;13.25;;;11.27;;
26838;SDS011;40088;51.214;6.786;2023-08-21T14:00:43;16.80;;;15.10;;
26838;SDS011;40088;51.214;6.786;2023-08-21T14:10:46;20.50;;;17.38;;
26838;SDS011;40088;51.214;6.786;2023-08-21T14:20:47;17.05;;;11.27;;
26838;SDS011;40088;51.214;6.786;2023-08-21T14:30:47;13.80;;;9.23;;
26838;SDS011;40088;51.214;6.786;2023-08-21T14:40:48;15.05;;;11.27;;
26838;SDS011;40088;51.214;6.786;2023-08-21T14:50:49;13.63;;;8.80;;
26838;SDS011;40088;51.214;6.786;2023-08-21T15:00:49;13.95;;;12.02;;
26838;SDS011;40088;51.214;6.786;2023-08-21T15:10:53;14.55;;;10.45;;
26838;SDS011;40088;51.214;6.786;2023-08-21T15:20:53;14.80;;;13.35;;
26838;SDS011;40088;51.214;6.786;2023-08-21T15:30:53;26.38;;;23.80;;
26838;SDS011;40088;51.214;6.786;2023-08-21T15:40:54;13.98;;;12.50;;
26838;SDS011;40088;51.214;6.786;2023-08-21T15:50:54;21.80;;;19.48;;
26838;SDS011;40088;51.214;6.786;2023-08-21T16:00:56;19.83;;;16.73;;
26838;SDS011;40088;51.214;6.786;2023-08-21T16:10:57;12.50;;;11.30;;
26838;SDS011;40088;51.214;6.786;2023-08-21T16:20:57;19.25;;;15.57;;
26838;SDS011;40088;51.214;6.786;2023-08-21T16:30:58;14.35;;;12.82;;
26838;SDS011;40088;51.214;6.786;2023-08-21T16:40:58;10.98;;;9.65;;
26838;SDS011;40088;51.214;6.786;2023-08-21T16:50:59;18.42;;;16.63;;
26838;SDS011;40088;51.214;6.786;2023-08-21T17:00:59;14.25;;;11.20;;
26838;SDS011;40088;51.214;6.786;2023-08-21T17:11:00;13.05;;;11.48;;
26838;SDS011;40088;51.214;6.786;2023-08-21T17:21:01;10.50;;;9.13;;
26838;SDS011;40088;51.214;6.786;2023-08-21T17:31:02;16.88;;;15.10;;
26838;SDS011;40088;51.214;6.786;2023-08-21T17:41:02;8.45;;;6.03;;
26838;SDS011;40088;51.214;6.786;2023-08-21T17:51:03;10.60;;;8.13;;
26838;SDS011;40088;51.214;6.786;2023-08-21T18:01:04;7.40;;;5.57;;
26838;SDS011;40088;51.214;6.786;2023-08-21T18:11:05;12.13;;;10.65;;
26838;SDS011;40088;51.214;6.786;2023-08-21T18:21:07;13.50;;;11.40;;
26838;SDS011;40088;51.214;6.786;2023-08-21T18:31:07;8.70;;;7.15;;
26838;SDS011;40088;51.214;6.786;2023-08-21T18:41:08;18.55;;;13.60;;
26838;SDS011;40088;51.214;6.786;2023-08-21T18:51:08;11.70;;;8.67;;
26838;SDS011;40088;51.214;6.786;2023-08-21T19:01:09;16.40;;;12.57;;
26838;SDS011;40088;51.214;6.786;2023-08-21T19:11:09;12.23;;;9.05;;
26838;SDS011;40088;51.214;6.786;2023-08-21T19:21:11;14.55;;;11.40;;
26838;SDS011;40088;51.214;6.786;2023-08-21T19:31:11;14.30;;;10.95;;
26838;SDS011;40088;51.214;6.786;2023-08-21T19:41:12;11.85;;;7.93;;
26838;SDS011;40088;51.214;6.786;2023-08-21T19:51:12;13.23;;;11.32;;
26838;SDS011;40088;51.214;6.786;2023-08-21T20:01:12;11.23;;;9.85;;
26838;SDS011;40088;51.214;6.786;2023-08-21T20:11:13;8.95;;;7.68;;
26838;SDS011;40088;51.214;6.786;2023-08-21T20:21:13;15.45;;;13.18;;
26838;SDS011;40088;51.214;6.786;2023-08-21T20:31:16;10.07;;;8.10;;
26838;SDS011;40088;51.214;6.786;2023-08-21T20:41:16;14.45;;;10.55;;
26838;SDS011;40088;51.214;6.786;2023-08-21T20:51:16;10.05;;;7.30;;
26838;SDS011;40088;51.214;6.786;2023-08-21T21:01:17;13.63;;;10.30;;
26838;SDS011;40088;51.214;6.786;2023-08-21T21:11:17;20.67;;;16.70;;
26838;SDS011;40088;51.214;6.786;2023-08-21T21:21:17;13.52;;;9.10;;
26838;SDS011;40088;51.214;6.786;2023-08-21T21:31:17;12.38;;;10.00;;
26838;SDS011;40088;51.214;6.786;2023-08-21T21:41:18;9.95;;;8.43;;
26838;SDS011;40088;51.214;6.786;2023-08-21T21:51:19;14.20;;;10.52;;
26838;SDS011;40088;51.214;6.786;2023-08-21T22:01:19;20.93;;;17.27;;
26838;SDS011;40088;51.214;6.786;2023-08-21T22:11:19;22.88;;;17.55;;
26838;SDS011;40088;51.214;6.786;2023-08-21T22:21:20;19.55;;;14.05;;
26838;SDS011;40088;51.214;6.786;2023-08-21T22:31:20;13.23;;;9.63;;
26838;SDS011;40088;51.214;6.786;2023-08-21T22:41:20;12.55;;;9.55;;
26838;SDS011;40088;51.214;6.786;2023-08-21T22:51:21;19.45;;;13.40;;
26838;SDS011;40088;51.214;6.786;2023-08-21T23:01:21;18.08;;;12.52;;
26838;SDS011;40088;51.214;6.786;2023-08-21T23:11:21;26.70;;;18.95;;
26838;SDS011;40088;51.214;6.786;2023-08-21T23:21:22;14.32;;;9.77;;
26838;SDS011;40088;51.214;6.786;2023-08-21T23:31:23;15.50;;;9.93;;
26838;SDS011;40088;51.214;6.786;2023-08-21T23:41:23;13.63;;;9.82;;
26838;SDS011;40088;51.214;6.786;2023-08-21T23:51:24;13.30;;;9.40;;
